CSN118 ZGGG-ZJSY
Flight info
| Callsign | CSN118 |
|---|---|
| Flight time | 1h 6m |
| Altitude | 36100 |
| Route | VIBOS2 VIBOS R473 ZUH R200 BIGRO G221 WL |
| Aircraft | B738/M-SDE2E3FGHIRWXY/LB1 |
Departure
| Time | 2026-04-27 10:48 |
|---|---|
| Airport | Guangzhou Baiyun International Airport (ZGGG) |
Arrival
| Time | 2026-04-27 11:54 |
|---|---|
| Airport | Sanya Phoenix International Airport (ZJSY) |
| Time | Latitude | Longitude | Altitude | Speed | Heading |
|---|---|---|---|---|---|
| 2026-04-27 09:59 | 23.38736 | 113.30244 | 57 ft | 0 kts | 28° |
| 2026-04-27 10:33 | 23.38732 | 113.30241 | 25 ft | 4 kts | 28° |
| 2026-04-27 10:33 | 23.38708 | 113.30227 | 53 ft | 4 kts | 28° |
| 2026-04-27 10:33 | 23.38684 | 113.30214 | 49 ft | 4 kts | 28° |
| 2026-04-27 10:34 | 23.38663 | 113.30200 | 51 ft | 4 kts | 51° |
| 2026-04-27 10:34 | 23.38658 | 113.30177 | 51 ft | 4 kts | 110° |
| 2026-04-27 10:34 | 23.38665 | 113.30160 | 49 ft | 1 kts | 117° |
| 2026-04-27 10:34 | 23.38666 | 113.30158 | 49 ft | 0 kts | 117° |
| 2026-04-27 10:38 | 23.38648 | 113.30195 | 57 ft | 10 kts | 117° |
| 2026-04-27 10:38 | 23.38608 | 113.30281 | 56 ft | 14 kts | 117° |
| 2026-04-27 10:38 | 23.38574 | 113.30368 | 52 ft | 12 kts | 105° |
| 2026-04-27 10:38 | 23.38561 | 113.30426 | 50 ft | 7 kts | 103° |
| 2026-04-27 10:39 | 23.38544 | 113.30499 | 52 ft | 12 kts | 104° |
| 2026-04-27 10:39 | 23.38543 | 113.30580 | 56 ft | 11 kts | 57° |
| 2026-04-27 10:39 | 23.38617 | 113.30616 | 53 ft | 13 kts | 13° |
| 2026-04-27 10:39 | 23.38710 | 113.30640 | 56 ft | 15 kts | 14° |
| 2026-04-27 10:40 | 23.38819 | 113.30670 | 53 ft | 18 kts | 14° |
| 2026-04-27 10:40 | 23.38956 | 113.30707 | 56 ft | 23 kts | 14° |
| 2026-04-27 10:40 | 23.39126 | 113.30753 | 50 ft | 26 kts | 14° |
| 2026-04-27 10:40 | 23.39284 | 113.30796 | 50 ft | 17 kts | 14° |
| 2026-04-27 10:41 | 23.39332 | 113.30809 | 56 ft | 8 kts | 14° |
| 2026-04-27 10:41 | 23.39424 | 113.30834 | 53 ft | 18 kts | 14° |
| 2026-04-27 10:41 | 23.39546 | 113.30867 | 56 ft | 19 kts | 14° |
| 2026-04-27 10:41 | 23.39683 | 113.30903 | 52 ft | 21 kts | 14° |
| 2026-04-27 10:42 | 23.39836 | 113.30945 | 56 ft | 24 kts | 14° |
| 2026-04-27 10:42 | 23.39990 | 113.30986 | 52 ft | 22 kts | 14° |
| 2026-04-27 10:42 | 23.40141 | 113.31027 | 53 ft | 18 kts | 14° |
| 2026-04-27 10:42 | 23.40273 | 113.31063 | 53 ft | 20 kts | 14° |
| 2026-04-27 10:43 | 23.40398 | 113.31097 | 54 ft | 20 kts | 14° |
| 2026-04-27 10:43 | 23.40542 | 113.31136 | 53 ft | 23 kts | 13° |
| 2026-04-27 10:43 | 23.40660 | 113.31168 | 54 ft | 10 kts | 13° |
| 2026-04-27 10:43 | 23.40718 | 113.31202 | 53 ft | 10 kts | 56° |
| 2026-04-27 10:44 | 23.40721 | 113.31248 | 55 ft | 0 kts | 103° |
| 2026-04-27 10:46 | 23.40716 | 113.31274 | 53 ft | 8 kts | 103° |
| 2026-04-27 10:46 | 23.40692 | 113.31347 | 55 ft | 13 kts | 131° |
| 2026-04-27 10:46 | 23.40602 | 113.31353 | 50 ft | 13 kts | 193° |
| 2026-04-27 10:46 | 23.40597 | 113.31352 | 51 ft | 0 kts | 193° |
| 2026-04-27 10:47 | 23.40578 | 113.31347 | 50 ft | 12 kts | 194° |
| 2026-04-27 10:48 | 23.40342 | 113.31284 | 53 ft | 63 kts | 194° |
| 2026-04-27 10:48 | 23.39683 | 113.31106 | 55 ft | 131 kts | 194° |
| 2026-04-27 10:48 | 23.38606 | 113.30827 | 242 ft | 171 kts | 194° |
| 2026-04-27 10:48 | 23.37490 | 113.30508 | 1121 ft | 168 kts | 194° |
| 2026-04-27 10:49 | 23.36357 | 113.30197 | 1746 ft | 167 kts | 193° |
| 2026-04-27 10:49 | 23.35194 | 113.29895 | 2061 ft | 175 kts | 193° |
| 2026-04-27 10:49 | 23.34027 | 113.29591 | 2549 ft | 172 kts | 193° |
| 2026-04-27 10:49 | 23.32858 | 113.29283 | 2962 ft | 174 kts | 193° |
| 2026-04-27 10:50 | 23.31587 | 113.28946 | 3206 ft | 208 kts | 193° |
| 2026-04-27 10:50 | 23.30073 | 113.28545 | 3220 ft | 237 kts | 193° |
| 2026-04-27 10:50 | 23.28451 | 113.28113 | 3195 ft | 243 kts | 193° |
| 2026-04-27 10:50 | 23.26819 | 113.27656 | 3410 ft | 246 kts | 196° |
| 2026-04-27 10:51 | 23.25189 | 113.27098 | 4331 ft | 243 kts | 198° |
| 2026-04-27 10:51 | 23.23565 | 113.26519 | 5242 ft | 245 kts | 199° |
| 2026-04-27 10:51 | 23.21943 | 113.25940 | 6136 ft | 246 kts | 200° |
| 2026-04-27 10:51 | 23.20323 | 113.25364 | 6914 ft | 249 kts | 199° |
| 2026-04-27 10:52 | 23.18657 | 113.24775 | 7689 ft | 253 kts | 199° |
| 2026-04-27 10:52 | 23.16968 | 113.24180 | 8458 ft | 257 kts | 199° |
| 2026-04-27 10:52 | 23.15261 | 113.23580 | 9232 ft | 261 kts | 198° |
| 2026-04-27 10:52 | 23.13522 | 113.22970 | 9980 ft | 265 kts | 198° |
| 2026-04-27 10:53 | 23.11753 | 113.22351 | 10557 ft | 268 kts | 198° |
| 2026-04-27 10:53 | 23.08349 | 113.21161 | 10883 ft | 269 kts | 198° |
| 2026-04-27 10:53 | 23.06562 | 113.20537 | 10978 ft | 269 kts | 198° |
| 2026-04-27 10:54 | 23.04789 | 113.19918 | 11552 ft | 272 kts | 198° |
| 2026-04-27 10:54 | 23.02967 | 113.19336 | 12318 ft | 273 kts | 189° |
| 2026-04-27 10:54 | 23.01040 | 113.19347 | 12929 ft | 285 kts | 171° |
| 2026-04-27 10:54 | 22.99066 | 113.19920 | 13125 ft | 309 kts | 164° |
| 2026-04-27 10:55 | 22.96950 | 113.20669 | 13304 ft | 331 kts | 163° |
| 2026-04-27 10:55 | 22.94678 | 113.21501 | 13471 ft | 353 kts | 163° |
| 2026-04-27 10:55 | 22.92275 | 113.22376 | 13617 ft | 372 kts | 163° |
| 2026-04-27 10:55 | 22.89775 | 113.23273 | 13836 ft | 386 kts | 163° |
| 2026-04-27 10:56 | 22.87186 | 113.24190 | 14250 ft | 393 kts | 163° |
| 2026-04-27 10:56 | 22.84571 | 113.25108 | 14785 ft | 395 kts | 164° |
| 2026-04-27 10:56 | 22.81965 | 113.26017 | 15298 ft | 398 kts | 164° |
| 2026-04-27 10:56 | 22.79313 | 113.26938 | 15793 ft | 402 kts | 164° |
| 2026-04-27 10:57 | 22.76625 | 113.27871 | 16261 ft | 406 kts | 164° |
| 2026-04-27 10:57 | 22.73908 | 113.28812 | 16728 ft | 410 kts | 164° |
| 2026-04-27 10:57 | 22.71180 | 113.29758 | 17197 ft | 413 kts | 164° |
| 2026-04-27 10:57 | 22.68463 | 113.30699 | 17650 ft | 417 kts | 164° |
| 2026-04-27 10:58 | 22.65683 | 113.31662 | 18086 ft | 420 kts | 164° |
| 2026-04-27 10:58 | 22.62869 | 113.32635 | 18473 ft | 424 kts | 164° |
| 2026-04-27 10:58 | 22.60066 | 113.33606 | 18871 ft | 426 kts | 164° |
| 2026-04-27 10:58 | 22.57223 | 113.34591 | 19293 ft | 428 kts | 164° |
| 2026-04-27 10:59 | 22.54412 | 113.35565 | 19684 ft | 430 kts | 165° |
| 2026-04-27 10:59 | 22.51546 | 113.36557 | 20071 ft | 433 kts | 165° |
| 2026-04-27 10:59 | 22.48667 | 113.37554 | 20448 ft | 435 kts | 165° |
| 2026-04-27 11:00 | 22.42884 | 113.39555 | 21239 ft | 440 kts | 165° |
| 2026-04-27 11:00 | 22.39955 | 113.40568 | 21551 ft | 442 kts | 165° |
| 2026-04-27 11:00 | 22.37011 | 113.41586 | 21904 ft | 444 kts | 165° |
| 2026-04-27 11:00 | 22.34057 | 113.42607 | 22255 ft | 447 kts | 165° |
| 2026-04-27 11:01 | 22.31115 | 113.43615 | 22599 ft | 448 kts | 167° |
| 2026-04-27 11:01 | 22.28046 | 113.44079 | 22884 ft | 445 kts | 185° |
| 2026-04-27 11:01 | 22.25021 | 113.43480 | 23234 ft | 441 kts | 202° |
| 2026-04-27 11:01 | 22.22308 | 113.41968 | 23571 ft | 437 kts | 218° |
| 2026-04-27 11:02 | 22.20772 | 113.40567 | 23752 ft | 436 kts | 227° |
| 2026-04-27 11:02 | 22.18468 | 113.37028 | 24068 ft | 436 kts | 246° |
| 2026-04-27 11:02 | 22.17697 | 113.35016 | 24254 ft | 436 kts | 249° |
| 2026-04-27 11:02 | 22.16619 | 113.31950 | 24520 ft | 438 kts | 250° |
| 2026-04-27 11:03 | 22.15530 | 113.28866 | 24765 ft | 440 kts | 249° |
| 2026-04-27 11:03 | 22.14399 | 113.25778 | 25026 ft | 441 kts | 249° |
| 2026-04-27 11:03 | 22.13230 | 113.22700 | 25289 ft | 442 kts | 248° |
| 2026-04-27 11:03 | 22.12003 | 113.19687 | 25529 ft | 444 kts | 247° |
| 2026-04-27 11:04 | 22.10727 | 113.16647 | 25759 ft | 446 kts | 247° |
| 2026-04-27 11:04 | 22.09438 | 113.13587 | 26010 ft | 447 kts | 247° |
| 2026-04-27 11:04 | 22.08157 | 113.10523 | 26254 ft | 448 kts | 247° |
| 2026-04-27 11:04 | 22.06875 | 113.07438 | 26481 ft | 450 kts | 248° |
| 2026-04-27 11:05 | 22.05610 | 113.04380 | 26700 ft | 451 kts | 248° |
| 2026-04-27 11:05 | 22.04330 | 113.01283 | 26926 ft | 453 kts | 248° |
| 2026-04-27 11:05 | 22.03054 | 112.98164 | 27148 ft | 453 kts | 248° |
| 2026-04-27 11:05 | 22.01834 | 112.95058 | 27372 ft | 454 kts | 249° |
| 2026-04-27 11:06 | 22.00613 | 112.91896 | 27568 ft | 456 kts | 249° |
| 2026-04-27 11:06 | 21.99392 | 112.88735 | 27767 ft | 457 kts | 249° |
| 2026-04-27 11:06 | 21.98160 | 112.85569 | 28002 ft | 458 kts | 249° |
| 2026-04-27 11:06 | 21.96922 | 112.82409 | 28317 ft | 457 kts | 249° |
| 2026-04-27 11:07 | 21.95692 | 112.79302 | 28660 ft | 455 kts | 249° |
| 2026-04-27 11:07 | 21.94426 | 112.76148 | 28998 ft | 454 kts | 249° |
| 2026-04-27 11:07 | 21.93180 | 112.73055 | 29312 ft | 453 kts | 249° |
| 2026-04-27 11:07 | 21.91935 | 112.69964 | 29600 ft | 453 kts | 249° |
| 2026-04-27 11:08 | 21.90679 | 112.66840 | 29891 ft | 452 kts | 249° |
| 2026-04-27 11:08 | 21.89429 | 112.63730 | 30214 ft | 451 kts | 249° |
| 2026-04-27 11:08 | 21.88191 | 112.60648 | 30531 ft | 449 kts | 249° |
| 2026-04-27 11:08 | 21.86945 | 112.57549 | 30851 ft | 448 kts | 249° |
| 2026-04-27 11:09 | 21.85722 | 112.54509 | 31112 ft | 447 kts | 249° |
| 2026-04-27 11:09 | 21.84485 | 112.51417 | 31384 ft | 447 kts | 249° |
| 2026-04-27 11:09 | 21.83260 | 112.48338 | 31698 ft | 446 kts | 249° |
| 2026-04-27 11:09 | 21.82055 | 112.45305 | 32015 ft | 444 kts | 250° |
| 2026-04-27 11:10 | 21.80837 | 112.42239 | 32312 ft | 443 kts | 250° |
| 2026-04-27 11:10 | 21.79626 | 112.39192 | 32580 ft | 443 kts | 250° |
| 2026-04-27 11:10 | 21.78407 | 112.36129 | 32861 ft | 442 kts | 250° |
| 2026-04-27 11:10 | 21.77209 | 112.33122 | 33175 ft | 441 kts | 250° |
| 2026-04-27 11:11 | 21.76006 | 112.30106 | 33494 ft | 440 kts | 250° |
| 2026-04-27 11:11 | 21.74799 | 112.27084 | 33793 ft | 440 kts | 250° |
| 2026-04-27 11:11 | 21.73589 | 112.24054 | 34024 ft | 440 kts | 250° |
| 2026-04-27 11:11 | 21.72378 | 112.21024 | 34250 ft | 440 kts | 250° |
| 2026-04-27 11:12 | 21.71182 | 112.18033 | 34494 ft | 439 kts | 250° |
| 2026-04-27 11:12 | 21.69973 | 112.15012 | 34726 ft | 438 kts | 250° |
| 2026-04-27 11:12 | 21.68767 | 112.11999 | 34946 ft | 438 kts | 250° |
| 2026-04-27 11:12 | 21.67558 | 112.08981 | 35177 ft | 438 kts | 250° |
| 2026-04-27 11:13 | 21.66353 | 112.05974 | 35412 ft | 437 kts | 250° |
| 2026-04-27 11:13 | 21.65163 | 112.03008 | 35622 ft | 437 kts | 250° |
| 2026-04-27 11:13 | 21.63953 | 111.99993 | 35833 ft | 437 kts | 250° |
| 2026-04-27 11:13 | 21.62759 | 111.97020 | 36002 ft | 437 kts | 250° |
| 2026-04-27 11:14 | 21.60341 | 111.91002 | 36004 ft | 438 kts | 250° |
| 2026-04-27 11:14 | 21.57912 | 111.84990 | 36002 ft | 436 kts | 248° |
| 2026-04-27 11:15 | 21.54622 | 111.79524 | 36009 ft | 442 kts | 234° |
| 2026-04-27 11:15 | 21.50607 | 111.74524 | 36005 ft | 442 kts | 233° |
| 2026-04-27 11:16 | 21.46594 | 111.69559 | 36005 ft | 442 kts | 233° |
| 2026-04-27 11:16 | 21.42566 | 111.64523 | 36007 ft | 443 kts | 234° |
| 2026-04-27 11:17 | 21.38567 | 111.59498 | 36004 ft | 445 kts | 234° |
| 2026-04-27 11:17 | 21.34537 | 111.54433 | 36003 ft | 447 kts | 234° |
| 2026-04-27 11:18 | 21.30508 | 111.49375 | 36004 ft | 449 kts | 234° |
| 2026-04-27 11:18 | 21.26454 | 111.44291 | 36001 ft | 450 kts | 234° |
| 2026-04-27 11:19 | 21.22360 | 111.39163 | 35997 ft | 451 kts | 234° |
| 2026-04-27 11:19 | 21.18289 | 111.34067 | 35991 ft | 452 kts | 234° |
| 2026-04-27 11:20 | 21.14193 | 111.28946 | 35994 ft | 451 kts | 234° |
| 2026-04-27 11:20 | 21.10104 | 111.23838 | 35992 ft | 450 kts | 234° |
| 2026-04-27 11:21 | 21.06044 | 111.18769 | 35988 ft | 449 kts | 234° |
| 2026-04-27 11:21 | 21.01965 | 111.13682 | 35989 ft | 448 kts | 234° |
| 2026-04-27 11:22 | 20.97930 | 111.08653 | 35986 ft | 446 kts | 234° |
| 2026-04-27 11:22 | 20.93884 | 111.03612 | 35988 ft | 445 kts | 234° |
| 2026-04-27 11:23 | 20.89881 | 110.98603 | 35982 ft | 444 kts | 234° |
| 2026-04-27 11:23 | 20.85882 | 110.93594 | 35984 ft | 443 kts | 234° |
| 2026-04-27 11:24 | 20.81866 | 110.88571 | 35980 ft | 443 kts | 234° |
| 2026-04-27 11:24 | 20.77879 | 110.83589 | 35980 ft | 442 kts | 234° |
| 2026-04-27 11:25 | 20.73886 | 110.78605 | 35987 ft | 442 kts | 234° |
| 2026-04-27 11:25 | 20.69864 | 110.73590 | 35977 ft | 443 kts | 234° |
| 2026-04-27 11:26 | 20.65855 | 110.68595 | 35973 ft | 443 kts | 234° |
| 2026-04-27 11:26 | 20.61846 | 110.63604 | 35977 ft | 444 kts | 234° |
| 2026-04-27 11:27 | 20.57843 | 110.58625 | 35971 ft | 444 kts | 234° |
| 2026-04-27 11:27 | 20.53804 | 110.53605 | 35977 ft | 444 kts | 234° |
| 2026-04-27 11:28 | 20.49568 | 110.48783 | 35970 ft | 451 kts | 225° |
| 2026-04-27 11:28 | 20.44395 | 110.44888 | 35968 ft | 457 kts | 219° |
| 2026-04-27 11:29 | 20.39098 | 110.41105 | 35971 ft | 459 kts | 219° |
| 2026-04-27 11:29 | 20.33814 | 110.37284 | 35975 ft | 460 kts | 220° |
| 2026-04-27 11:30 | 20.30318 | 110.34733 | 35974 ft | 460 kts | 220° |
| 2026-04-27 11:30 | 20.27550 | 110.32708 | 35965 ft | 460 kts | 220° |
| 2026-04-27 11:31 | 20.22276 | 110.28852 | 35968 ft | 460 kts | 220° |
| 2026-04-27 11:31 | 20.16991 | 110.24993 | 35970 ft | 460 kts | 220° |
| 2026-04-27 11:32 | 20.11702 | 110.21135 | 35961 ft | 459 kts | 220° |
| 2026-04-27 11:32 | 20.06464 | 110.17317 | 35957 ft | 458 kts | 220° |
| 2026-04-27 11:33 | 20.01190 | 110.13555 | 35956 ft | 460 kts | 215° |
| 2026-04-27 11:33 | 19.95360 | 110.10600 | 35956 ft | 463 kts | 210° |
| 2026-04-27 11:34 | 19.89458 | 110.07825 | 35955 ft | 462 kts | 210° |
| 2026-04-27 11:34 | 19.83622 | 110.05046 | 35960 ft | 460 kts | 210° |
| 2026-04-27 11:35 | 19.80732 | 110.03660 | 35929 ft | 445 kts | 210° |
| 2026-04-27 11:35 | 19.77956 | 110.02325 | 35705 ft | 437 kts | 210° |
| 2026-04-27 11:35 | 19.75182 | 110.00983 | 35047 ft | 439 kts | 211° |
| 2026-04-27 11:35 | 19.72394 | 109.99628 | 34182 ft | 448 kts | 211° |
| 2026-04-27 11:36 | 19.69530 | 109.98236 | 33248 ft | 456 kts | 210° |
| 2026-04-27 11:36 | 19.66602 | 109.96816 | 32221 ft | 465 kts | 210° |
| 2026-04-27 11:36 | 19.63661 | 109.95394 | 31237 ft | 473 kts | 209° |
| 2026-04-27 11:36 | 19.60652 | 109.93943 | 30319 ft | 479 kts | 208° |
| 2026-04-27 11:37 | 19.57580 | 109.92466 | 29644 ft | 477 kts | 208° |
| 2026-04-27 11:37 | 19.54634 | 109.91053 | 29199 ft | 469 kts | 208° |
| 2026-04-27 11:37 | 19.51657 | 109.89625 | 28742 ft | 460 kts | 208° |
| 2026-04-27 11:37 | 19.48742 | 109.88222 | 27762 ft | 464 kts | 208° |
| 2026-04-27 11:38 | 19.45798 | 109.86802 | 26850 ft | 466 kts | 208° |
| 2026-04-27 11:38 | 19.42831 | 109.85372 | 25951 ft | 468 kts | 208° |
| 2026-04-27 11:38 | 19.39859 | 109.83942 | 25077 ft | 468 kts | 208° |
| 2026-04-27 11:38 | 19.36928 | 109.82536 | 24239 ft | 467 kts | 208° |
| 2026-04-27 11:39 | 19.33957 | 109.81132 | 23406 ft | 465 kts | 208° |
| 2026-04-27 11:39 | 19.30989 | 109.79738 | 22427 ft | 463 kts | 208° |
| 2026-04-27 11:39 | 19.28049 | 109.78356 | 21556 ft | 460 kts | 208° |
| 2026-04-27 11:39 | 19.25147 | 109.77151 | 21394 ft | 444 kts | 202° |
| 2026-04-27 11:40 | 19.22176 | 109.76369 | 20757 ft | 442 kts | 193° |
| 2026-04-27 11:40 | 19.19109 | 109.75930 | 19889 ft | 444 kts | 192° |
| 2026-04-27 11:40 | 19.16027 | 109.75506 | 19034 ft | 445 kts | 192° |
| 2026-04-27 11:40 | 19.12955 | 109.75076 | 18153 ft | 445 kts | 192° |
| 2026-04-27 11:41 | 19.09932 | 109.74643 | 17240 ft | 440 kts | 192° |
| 2026-04-27 11:41 | 19.06921 | 109.74205 | 16297 ft | 433 kts | 192° |
| 2026-04-27 11:41 | 19.03937 | 109.73765 | 15387 ft | 427 kts | 191° |
| 2026-04-27 11:41 | 19.01048 | 109.73334 | 14519 ft | 421 kts | 191° |
| 2026-04-27 11:42 | 18.98151 | 109.72900 | 13632 ft | 415 kts | 191° |
| 2026-04-27 11:42 | 18.95309 | 109.72472 | 12669 ft | 410 kts | 191° |
| 2026-04-27 11:42 | 18.92493 | 109.72049 | 11771 ft | 405 kts | 190° |
| 2026-04-27 11:42 | 18.89756 | 109.71639 | 11033 ft | 398 kts | 189° |
| 2026-04-27 11:43 | 18.87072 | 109.71238 | 10833 ft | 376 kts | 190° |
| 2026-04-27 11:43 | 18.84546 | 109.70865 | 10683 ft | 353 kts | 190° |
| 2026-04-27 11:43 | 18.82200 | 109.70517 | 10566 ft | 334 kts | 190° |
| 2026-04-27 11:43 | 18.79946 | 109.70180 | 10453 ft | 317 kts | 190° |
| 2026-04-27 11:44 | 18.77837 | 109.69864 | 10353 ft | 301 kts | 190° |
| 2026-04-27 11:44 | 18.75807 | 109.69561 | 10252 ft | 287 kts | 190° |
| 2026-04-27 11:44 | 18.73846 | 109.69267 | 9992 ft | 282 kts | 190° |
| 2026-04-27 11:44 | 18.71902 | 109.68974 | 9734 ft | 282 kts | 190° |
| 2026-04-27 11:45 | 18.69956 | 109.68682 | 9425 ft | 282 kts | 190° |
| 2026-04-27 11:45 | 18.68671 | 109.68489 | 9219 ft | 281 kts | 190° |
| 2026-04-27 11:45 | 18.66109 | 109.68106 | 8829 ft | 279 kts | 190° |
| 2026-04-27 11:45 | 18.64182 | 109.67818 | 8533 ft | 277 kts | 190° |
| 2026-04-27 11:46 | 18.62292 | 109.67536 | 8247 ft | 276 kts | 190° |
| 2026-04-27 11:46 | 18.60369 | 109.67249 | 7952 ft | 275 kts | 189° |
| 2026-04-27 11:46 | 18.58499 | 109.66970 | 7664 ft | 274 kts | 189° |
| 2026-04-27 11:46 | 18.56619 | 109.66690 | 7382 ft | 272 kts | 189° |
| 2026-04-27 11:47 | 18.54742 | 109.66410 | 7092 ft | 271 kts | 189° |
| 2026-04-27 11:47 | 18.52889 | 109.66135 | 6723 ft | 272 kts | 190° |
| 2026-04-27 11:47 | 18.51005 | 109.65854 | 6322 ft | 273 kts | 189° |
| 2026-04-27 11:47 | 18.49118 | 109.65573 | 5885 ft | 273 kts | 189° |
| 2026-04-27 11:48 | 18.47253 | 109.65295 | 5428 ft | 272 kts | 189° |
| 2026-04-27 11:48 | 18.45383 | 109.65016 | 5007 ft | 270 kts | 189° |
| 2026-04-27 11:48 | 18.43512 | 109.64738 | 4641 ft | 268 kts | 188° |
| 2026-04-27 11:48 | 18.41734 | 109.64473 | 4546 ft | 256 kts | 188° |
| 2026-04-27 11:49 | 18.40548 | 109.64297 | 4466 ft | 251 kts | 188° |
| 2026-04-27 11:49 | 18.39136 | 109.64088 | 4382 ft | 244 kts | 188° |
| 2026-04-27 11:49 | 18.37479 | 109.63841 | 4202 ft | 240 kts | 188° |
| 2026-04-27 11:49 | 18.35295 | 109.63497 | 3866 ft | 238 kts | 194° |
| 2026-04-27 11:50 | 18.33906 | 109.62597 | 3617 ft | 239 kts | 231° |
| 2026-04-27 11:50 | 18.33213 | 109.61031 | 3377 ft | 233 kts | 250° |
| 2026-04-27 11:50 | 18.32918 | 109.59964 | 3227 ft | 224 kts | 252° |
| 2026-04-27 11:50 | 18.32473 | 109.57884 | 2816 ft | 213 kts | 258° |
| 2026-04-27 11:51 | 18.32326 | 109.56870 | 2646 ft | 207 kts | 259° |
| 2026-04-27 11:51 | 18.32136 | 109.55398 | 2388 ft | 198 kts | 260° |
| 2026-04-27 11:51 | 18.31780 | 109.52654 | 1923 ft | 181 kts | 259° |
| 2026-04-27 11:52 | 18.31613 | 109.51378 | 1661 ft | 171 kts | 260° |
| 2026-04-27 11:52 | 18.31458 | 109.50187 | 1453 ft | 158 kts | 260° |
| 2026-04-27 11:52 | 18.31311 | 109.49057 | 1258 ft | 154 kts | 260° |
| 2026-04-27 11:52 | 18.31165 | 109.47940 | 1081 ft | 155 kts | 261° |
| 2026-04-27 11:53 | 18.31014 | 109.46784 | 895 ft | 161 kts | 261° |
| 2026-04-27 11:53 | 18.30866 | 109.45618 | 655 ft | 160 kts | 262° |
| 2026-04-27 11:53 | 18.30718 | 109.44492 | 441 ft | 156 kts | 261° |
| 2026-04-27 11:53 | 18.30570 | 109.43365 | 271 ft | 154 kts | 261° |
| 2026-04-27 11:54 | 18.30428 | 109.42247 | 99 ft | 152 kts | 262° |
| 2026-04-27 11:54 | 18.30293 | 109.41246 | 84 ft | 118 kts | 263° |
| 2026-04-27 11:54 | 18.30206 | 109.40578 | 77 ft | 65 kts | 262° |
| 2026-04-27 11:54 | 18.30217 | 109.40300 | 72 ft | 29 kts | 288° |
| 2026-04-27 11:55 | 18.30246 | 109.40224 | 68 ft | 0 kts | 291° |
| 2026-04-27 11:58 | 18.30246 | 109.40222 | 69 ft | 2 kts | 291° |
| 2026-04-27 11:58 | 18.30264 | 109.40176 | 73 ft | 10 kts | 294° |
| 2026-04-27 11:58 | 18.30331 | 109.40140 | 74 ft | 9 kts | 353° |
| 2026-04-27 11:59 | 18.30391 | 109.40158 | 72 ft | 11 kts | 56° |
| 2026-04-27 11:59 | 18.30419 | 109.40238 | 69 ft | 9 kts | 46° |
| 2026-04-27 11:59 | 18.30493 | 109.40247 | 70 ft | 13 kts | 352° |
| 2026-04-27 11:59 | 18.30603 | 109.40233 | 70 ft | 18 kts | 353° |
| 2026-04-27 12:00 | 18.30658 | 109.40262 | 73 ft | 11 kts | 71° |
| 2026-04-27 12:00 | 18.30673 | 109.40361 | 78 ft | 16 kts | 82° |
| 2026-04-27 12:00 | 18.30689 | 109.40482 | 75 ft | 12 kts | 82° |
| 2026-04-27 12:00 | 18.30704 | 109.40531 | 83 ft | 7 kts | 40° |
| 2026-04-27 12:01 | 18.30747 | 109.40537 | 82 ft | 0 kts | 355° |
| 2026-04-27 12:01 | 18.30753 | 109.40536 | 82 ft | 3 kts | 354° |
| 2026-04-27 12:01 | 18.30761 | 109.40536 | 81 ft | 0 kts | 353° |
| 2026-04-27 12:01 | 18.30766 | 109.40535 | 81 ft | 1 kts | 353° |
| 2026-04-27 12:02 | 18.30767 | 109.40535 | 81 ft | 0 kts | 353° |